Terminal Aerodrome Forecast
Issued by NWS Tiyan, Guam

Current Version | Previous Version | Text Only | Print | Product List | Glossary On
Versions: 1 2 3 4 5 6 7 8 9 10 11 12 13 14 15 16
000
FTPQ31 PGUM 301100
TAFPQ
TAF
PGUM 301130Z 3012/3118 11010KT P6SM -RA FEW014 SCT025 BKN080
      TEMPO 3013/3016 5SM RA SCT015 BKN030 OVC080
     FM301800 13010KT P6SM VCSH FEW017 SCT050 BKN120=

USA.gov is the U.S. government's official web portal to all federal, state and local government web resources and services.